createdAt,value
2018-06-04T00:00:01.299Z,13.6
2018-06-04T00:05:00.865Z,14.3
2018-06-04T00:10:00.973Z,15.4
2018-06-04T00:15:00.869Z,16.7
2018-06-04T00:20:00.924Z,17.8
2018-06-04T00:25:01.897Z,18.6
2018-06-04T00:30:00.862Z,19.0
2018-06-04T00:35:00.831Z,19.7
2018-06-04T00:40:05.993Z,19.9
2018-06-04T00:45:00.867Z,20.3
2018-06-04T00:50:00.942Z,20.6
2018-06-04T00:55:00.833Z,20.6
2018-06-04T01:00:05.900Z,19.9
2018-06-04T01:05:00.842Z,19.7
2018-06-04T01:10:01.018Z,18.6
2018-06-04T01:15:00.912Z,18.4
2018-06-04T01:20:00.912Z,17.9
2018-06-04T01:25:00.883Z,18.2
2018-06-04T01:30:00.937Z,18.3
2018-06-04T01:35:00.885Z,19.3
2018-06-04T01:40:05.891Z,19.4
2018-06-04T01:45:01.003Z,19.9
2018-06-04T01:50:00.938Z,20.1
2018-06-04T01:55:01.181Z,19.8
2018-06-04T02:00:00.936Z,20.0
2018-06-04T02:05:00.865Z,20.3
2018-06-04T02:10:05.920Z,20.0
2018-06-04T02:15:00.841Z,20.0
2018-06-04T02:20:00.926Z,20.0
2018-06-04T02:25:00.863Z,20.0
2018-06-04T02:30:00.937Z,20.5
2018-06-04T02:35:05.879Z,21.1
2018-06-04T02:40:02.023Z,21.6
2018-06-04T02:45:00.892Z,22.2
2018-06-04T02:50:06.437Z,22.1
2018-06-04T02:55:00.934Z,21.7
2018-06-04T03:00:00.946Z,21.8
2018-06-04T03:05:01.905Z,21.9
2018-06-04T03:10:00.880Z,22.0
2018-06-04T03:15:00.868Z,22.4
2018-06-04T03:20:06.526Z,22.7
2018-06-04T03:25:06.884Z,22.4
2018-06-04T03:30:00.936Z,22.3
2018-06-04T03:35:00.834Z,22.3
2018-06-04T03:40:05.923Z,22.3
2018-06-04T03:45:05.924Z,22.4
2018-06-04T03:50:01.109Z,22.0
2018-06-04T03:55:00.860Z,22.2
2018-06-04T04:00:00.982Z,22.3
2018-06-04T04:05:05.871Z,22.3
2018-06-04T04:10:00.981Z,21.7
2018-06-04T04:15:00.902Z,22.1
2018-06-04T04:20:00.906Z,21.7
2018-06-04T04:25:00.926Z,21.4
2018-06-04T04:30:05.971Z,21.8
2018-06-04T04:35:00.772Z,22.2
2018-06-04T04:40:00.913Z,23.0
2018-06-04T04:45:00.847Z,23.8
2018-06-04T04:50:00.849Z,24.5
2018-06-04T04:55:00.844Z,24.7
2018-06-04T05:00:01.003Z,25.2
2018-06-04T05:05:00.886Z,25.2
2018-06-04T05:10:00.917Z,25.1
2018-06-04T05:15:00.907Z,24.8
2018-06-04T05:20:01.049Z,24.6
2018-06-04T05:25:00.860Z,24.0
2018-06-04T05:30:06.049Z,23.2
2018-06-04T05:35:00.830Z,22.7
2018-06-04T05:40:00.954Z,22.4
2018-06-04T05:45:00.897Z,21.8
2018-06-04T05:50:01.130Z,21.8
2018-06-04T05:55:00.998Z,21.6
2018-06-04T06:00:01.066Z,21.4
2018-06-04T06:10:00.962Z,21.6
2018-06-04T06:15:02.056Z,21.4
2018-06-04T06:20:06.004Z,21.9
2018-06-04T06:25:00.922Z,22.0
2018-06-04T06:30:02.092Z,22.0
2018-06-04T06:35:00.947Z,21.8
2018-06-04T06:40:00.909Z,22.0
2018-06-04T06:45:00.934Z,22.1
2018-06-04T06:50:00.910Z,21.8
2018-06-04T06:55:00.944Z,21.8
2018-06-04T07:00:00.919Z,21.7
2018-06-04T07:05:01.051Z,21.5
2018-06-04T07:10:00.953Z,21.0
2018-06-04T07:15:00.944Z,20.9
2018-06-04T07:20:02.212Z,20.8
2018-06-04T07:25:00.941Z,20.4
2018-06-04T07:30:06.067Z,20.1
2018-06-04T07:35:00.957Z,20.1
2018-06-04T07:40:01.062Z,20.2
2018-06-04T07:45:00.945Z,19.7
2018-06-04T07:50:00.992Z,19.3
2018-06-04T07:55:00.925Z,19.3
2018-06-04T08:00:00.983Z,19.3
2018-06-04T08:05:00.961Z,19.2
2018-06-04T08:10:02.947Z,19.6
2018-06-04T08:15:00.993Z,20.0
2018-06-04T08:20:01.027Z,20.0
2018-06-04T08:25:00.966Z,20.4
2018-06-04T08:30:06.038Z,20.8
2018-06-04T08:35:06.073Z,20.8
2018-06-04T08:40:06.132Z,21.2
2018-06-04T08:45:05.919Z,21.6
2018-06-04T08:50:00.937Z,21.4
2018-06-04T08:55:00.912Z,21.0
2018-06-04T09:00:01.005Z,21.2
2018-06-04T09:05:00.909Z,21.2
2018-06-04T09:15:01.050Z,21.3
2018-06-04T09:20:02.141Z,21.7
2018-06-04T09:25:00.887Z,21.6
2018-06-04T09:30:00.956Z,22.0
2018-06-04T09:35:00.955Z,22.0
2018-06-04T09:40:01.134Z,21.5
2018-06-04T09:45:00.957Z,21.0
2018-06-04T09:50:01.097Z,21.0
2018-06-04T09:55:05.973Z,20.8
2018-06-04T10:00:01.035Z,20.4
2018-06-04T10:05:01.024Z,20.4
2018-06-04T10:10:01.097Z,20.4
2018-06-04T10:15:00.984Z,19.9
2018-06-04T10:20:01.123Z,19.7
2018-06-04T10:25:06.066Z,20.0
2018-06-04T10:30:01.143Z,19.6
2018-06-04T10:35:00.980Z,19.6
2018-06-04T10:40:01.099Z,19.8
2018-06-04T10:45:00.965Z,19.0
2018-06-04T10:50:06.046Z,18.4
2018-06-04T10:55:01.073Z,18.2
2018-06-04T11:00:06.187Z,17.2
2018-06-04T11:05:05.970Z,16.6
2018-06-04T11:10:01.118Z,16.8
2018-06-04T11:15:06.126Z,16.7
2018-06-04T11:20:06.169Z,16.4
2018-06-04T11:25:01.043Z,17.2
2018-06-04T11:30:06.080Z,16.9
2018-06-04T11:35:00.984Z,16.7
2018-06-04T11:40:01.125Z,16.6
2018-06-04T11:45:01.037Z,16.9
2018-06-04T11:50:01.049Z,16.3
2018-06-04T11:55:01.021Z,16.2
2018-06-04T12:00:01.568Z,15.8
2018-06-04T12:05:06.120Z,15.3
2018-06-04T12:10:01.058Z,14.4
2018-06-04T12:15:06.001Z,14.5
2018-06-04T12:20:06.065Z,14.1
2018-06-04T12:25:01.091Z,14.8
2018-06-04T12:30:06.067Z,15.3
2018-06-04T12:35:05.973Z,15.8
2018-06-04T12:40:01.092Z,16.4
2018-06-04T12:45:01.055Z,17.2
2018-06-04T12:50:01.059Z,16.8
2018-06-04T12:55:01.026Z,17.2
2018-06-04T13:00:01.002Z,17.7
2018-06-04T13:10:01.107Z,17.2
2018-06-04T13:15:01.061Z,16.9
2018-06-04T13:20:01.028Z,16.2
2018-06-04T13:25:01.038Z,15.6
2018-06-04T13:30:01.130Z,15.0
2018-06-04T13:35:01.052Z,15.4
2018-06-04T13:40:01.142Z,15.9
2018-06-04T13:45:01.028Z,16.6
2018-06-04T13:50:01.063Z,17.0
2018-06-04T13:55:01.048Z,17.8
2018-06-04T14:00:02.580Z,17.6
2018-06-04T14:05:01.006Z,18.0
2018-06-04T14:10:01.070Z,17.4
2018-06-04T14:15:01.016Z,17.2
2018-06-04T14:20:01.180Z,15.8
2018-06-04T14:25:02.240Z,15.4
2018-06-04T14:30:01.110Z,14.0
2018-06-04T14:35:00.961Z,13.4
2018-06-04T14:40:01.104Z,12.5
2018-06-04T14:45:05.960Z,12.4
2018-06-04T14:50:03.212Z,12.2
2018-06-04T14:55:01.025Z,12.6
2018-06-04T15:00:01.205Z,12.6
2018-06-04T15:05:01.080Z,13.7
2018-06-04T15:10:01.371Z,14.4
2018-06-04T15:15:01.116Z,15.1
2018-06-04T15:20:01.185Z,15.6
2018-06-04T15:25:01.027Z,16.6
2018-06-04T15:30:01.217Z,16.9
2018-06-04T15:35:06.061Z,17.3
2018-06-04T15:40:01.206Z,17.7
2018-06-04T15:45:06.054Z,17.9
2018-06-04T15:50:01.234Z,18.5
2018-06-04T15:55:01.076Z,18.7
2018-06-04T16:00:03.974Z,19.0
2018-06-04T16:05:02.332Z,19.2
2018-06-04T16:10:01.170Z,19.6
2018-06-04T16:15:01.129Z,19.5
2018-06-04T16:20:01.235Z,19.7
2018-06-04T16:25:01.172Z,19.2
2018-06-04T16:30:01.105Z,19.3
2018-06-04T16:35:01.080Z,18.9
2018-06-04T16:40:01.188Z,18.9
2018-06-04T16:45:01.316Z,18.5
2018-06-04T16:50:01.154Z,19.0
2018-06-04T16:55:01.087Z,18.8
2018-06-04T17:00:01.861Z,18.9
2018-06-04T17:05:01.087Z,18.6
2018-06-04T17:10:02.200Z,18.8
2018-06-04T17:15:01.113Z,18.4
2018-06-04T17:20:01.085Z,18.4
2018-06-04T17:25:06.037Z,18.6
2018-06-04T17:30:01.097Z,18.9
2018-06-04T17:35:01.222Z,19.3
2018-06-04T17:45:01.319Z,19.9
2018-06-04T17:50:01.166Z,20.1
2018-06-04T17:55:01.101Z,20.0
2018-06-04T18:00:01.107Z,19.8
2018-06-04T18:05:01.072Z,20.1
2018-06-04T18:10:01.206Z,20.1
2018-06-04T18:15:01.143Z,20.5
2018-06-04T18:20:01.246Z,20.6
2018-06-04T18:25:01.237Z,20.6
2018-06-04T18:30:06.192Z,20.3
2018-06-04T18:35:02.303Z,20.1
2018-06-04T18:40:02.191Z,19.4
2018-06-04T18:45:01.133Z,19.4
2018-06-04T18:50:01.171Z,19.2
2018-06-04T18:55:01.364Z,19.0
2018-06-04T19:00:01.237Z,18.8
2018-06-04T19:05:01.190Z,18.7
2018-06-04T19:10:01.264Z,18.0
2018-06-04T19:15:01.136Z,17.2
2018-06-04T19:20:01.316Z,16.9
2018-06-04T19:25:01.082Z,15.9
2018-06-04T19:30:12.233Z,14.9
2018-06-04T19:35:01.088Z,14.1
2018-06-04T19:40:01.168Z,13.0
2018-06-04T19:45:01.154Z,11.5
2018-06-04T19:50:01.248Z,10.9
2018-06-04T19:55:01.119Z,10.6
2018-06-04T20:00:01.260Z,10.4
2018-06-04T20:05:01.146Z,10.4
2018-06-04T20:10:01.187Z,10.4
2018-06-04T20:15:01.134Z,10.3
2018-06-04T20:25:01.190Z,10.0
2018-06-04T20:30:01.296Z,9.9
2018-06-04T20:35:01.125Z,9.6
2018-06-04T20:40:01.197Z,9.6
2018-06-04T20:45:01.167Z,9.4
2018-06-04T20:50:06.235Z,9.4
2018-06-04T21:00:06.330Z,9.9
2018-06-04T21:05:01.165Z,9.8
2018-06-04T21:10:06.277Z,10.2
2018-06-04T21:15:06.133Z,10.1
2018-06-04T21:20:01.218Z,9.9
2018-06-04T21:25:01.175Z,9.5
2018-06-04T21:30:01.311Z,9.5
2018-06-04T21:35:01.183Z,9.1
2018-06-04T21:40:01.315Z,9.3
2018-06-04T21:45:01.176Z,9.2
2018-06-04T21:50:01.243Z,10.0
2018-06-04T21:55:01.239Z,10.2
2018-06-04T22:00:01.362Z,10.5
2018-06-04T22:05:07.285Z,10.3
2018-06-04T22:10:01.268Z,10.7
2018-06-04T22:15:01.203Z,10.7
2018-06-04T22:20:01.265Z,11.0
2018-06-04T22:25:01.160Z,11.1
2018-06-04T22:30:01.324Z,11.3
2018-06-04T22:35:01.188Z,11.5
2018-06-04T22:40:02.323Z,11.3
2018-06-04T22:45:01.247Z,11.2
2018-06-04T22:50:01.292Z,11.4
2018-06-04T22:55:01.222Z,11.9
2018-06-04T23:00:01.466Z,11.6
2018-06-04T23:05:01.211Z,11.8
2018-06-04T23:10:01.283Z,11.7
2018-06-04T23:15:06.252Z,11.3
2018-06-04T23:20:01.282Z,10.6
2018-06-04T23:25:01.178Z,11.1
2018-06-04T23:30:01.346Z,10.8
2018-06-04T23:35:01.227Z,11.0
2018-06-04T23:40:01.347Z,11.3
2018-06-04T23:45:01.320Z,11.2
2018-06-04T23:50:01.330Z,10.5
2018-06-04T23:55:01.315Z,10.3
